Time;durP1;ratioP1;P1;durP2;ratioP2;P2;SDS_P1;SDS_P2;PMS_P1;PMS_P2;Temp;Humidity;BMP_temperature;BMP_pressure;BME280_temperature;BME280_humidity;BME280_pressure;Samples;Min_cycle;Max_cycle;Signal;HPM_P1;HPM_P2
2021/03/09 00:01:00;;;;;;;;;;;;;;;12.04;45.55;100630.97;4991950;28;19925;-65
2021/03/09 00:03:27;;;;;;;;;;;;;;;12.01;46.08;100631.56;4993227;28;19953;-68
2021/03/09 00:05:53;;;;;;;;;;;;;;;12.00;46.06;100641.09;4986170;28;20037;-68
2021/03/09 00:08:20;;;;;;;;;;;;;;;11.98;46.11;100636.88;4989394;28;19930;-68
2021/03/09 00:10:47;;;;;;;;;;;;;;;11.99;46.08;100635.75;4992940;28;20310;-68
2021/03/09 00:13:13;;;;;;;;;;;;;;;11.98;46.06;100643.31;4991826;28;19925;-68
2021/03/09 00:15:39;;;;;;;;;;;;;;;11.94;46.11;100642.22;4991895;28;20021;-69
2021/03/09 00:18:09;;;;;;;;;;;;;;;11.93;46.20;100646.16;4992024;28;20020;-69
2021/03/09 00:20:35;;;;;;;;;;;;;;;11.93;46.40;100634.09;4988861;28;20301;-70
2021/03/09 00:23:01;;;;;;;;;;;;;;;11.97;46.12;100650.06;4990415;28;19926;-71
2021/03/09 00:25:27;;;;;;;;;;;;;;;11.97;46.17;100650.06;4992376;28;19933;-63
2021/03/09 00:27:53;;;;;;;;;;;;;;;11.98;46.22;100651.72;4989454;28;20016;-65
2021/03/09 00:30:19;;;;;;;;;;;;;;;11.98;46.27;100653.69;4988290;28;19926;-65
2021/03/09 00:32:46;;;;;;;;;;;;;;;11.96;46.18;100650.31;4992257;28;19929;-65
2021/03/09 00:35:12;;;;;;;;;;;;;;;11.96;46.32;100650.31;4987566;28;19936;-64
2021/03/09 00:37:42;;;;;;;;;;;;;;;11.99;46.31;100650.59;4989537;28;20008;-64
2021/03/09 00:40:08;;;;;;;;;;;;;;;12.02;46.16;100640.78;4989914;28;20265;-65
2021/03/09 00:42:37;;;;;;;;;;;;;;;12.02;46.19;100636.00;4990511;28;19933;-65
2021/03/09 00:45:03;;;;;;;;;;;;;;;12.02;46.20;100633.22;4990481;28;19937;-66
2021/03/09 00:47:38;;;;;;;;;;;;;;;12.01;46.39;100634.34;4990275;28;20485;-65
2021/03/09 00:50:05;;;;;;;;;;;;;;;12.00;46.35;100629.03;4992996;28;19929;-63
2021/03/09 00:52:31;;;;;;;;;;;;;;;11.99;46.17;100636.59;4987275;28;19925;-65
2021/03/09 00:54:57;;;;;;;;;;;;;;;11.97;46.39;100618.44;4991041;28;19925;-65
2021/03/09 00:57:23;;;;;;;;;;;;;;;11.98;46.42;100622.91;4986700;28;19926;-65
2021/03/09 00:59:49;;;;;;;;;;;;;;;11.98;46.44;100614.50;4991683;28;20297;-65
2021/03/09 01:02:15;;;;;;;;;;;;;;;12.00;46.05;100610.28;4988306;28;20310;-65
2021/03/09 01:04:42;;;;;;;;;;;;;;;12.02;46.18;100610.81;4990854;28;19926;-65
2021/03/09 01:07:08;;;;;;;;;;;;;;;12.03;46.31;100608.84;4989988;28;19936;-65
2021/03/09 01:09:34;;;;;;;;;;;;;;;12.03;46.36;100606.94;4988651;28;19930;-67
2021/03/09 01:12:00;;;;;;;;;;;;;;;12.05;46.13;100599.06;4990579;28;19926;-65
2021/03/09 01:14:27;;;;;;;;;;;;;;;12.05;46.02;100595.41;4990036;28;19933;-74
2021/03/09 01:16:53;;;;;;;;;;;;;;;12.05;46.04;100604.66;4988922;28;19930;-73
2021/03/09 01:19:20;;;;;;;;;;;;;;;12.07;46.15;100607.19;4992641;28;19926;-75
2021/03/09 01:21:48;;;;;;;;;;;;;;;12.11;45.99;100618.63;4986064;28;20339;-75
2021/03/09 01:24:14;;;;;;;;;;;;;;;12.16;45.95;100615.78;4988055;28;19948;-73
2021/03/09 01:26:40;;;;;;;;;;;;;;;12.11;46.05;100619.47;4991779;28;19936;-70
2021/03/09 01:29:06;;;;;;;;;;;;;;;11.99;46.30;100621.75;4989103;28;19977;-71
2021/03/09 01:31:32;;;;;;;;;;;;;;;11.93;46.39;100623.78;4988876;28;19926;-70
2021/03/09 01:33:59;;;;;;;;;;;;;;;11.89;46.42;100633.84;4990459;28;19965;-75
2021/03/09 01:36:25;;;;;;;;;;;;;;;11.84;46.48;100628.28;4992245;28;19948;-69
2021/03/09 01:38:51;;;;;;;;;;;;;;;11.81;46.55;100642.81;4991603;28;20263;-71
2021/03/09 01:41:18;;;;;;;;;;;;;;;11.72;46.58;100644.53;4988563;28;19930;-69
2021/03/09 01:43:44;;;;;;;;;;;;;;;11.59;46.87;100640.41;4991131;28;19933;-68
2021/03/09 01:46:11;;;;;;;;;;;;;;;11.48;46.99;100630.34;4991699;28;19933;-70
2021/03/09 01:48:44;;;;;;;;;;;;;;;11.45;46.93;100622.53;4990680;28;19925;-68
2021/03/09 01:51:15;;;;;;;;;;;;;;;11.49;46.90;100618.91;4991795;28;19929;-68
2021/03/09 01:53:41;;;;;;;;;;;;;;;11.61;46.88;100616.59;4991859;28;20297;-69
2021/03/09 01:56:08;;;;;;;;;;;;;;;11.58;46.69;100611.56;4991219;28;19930;-69
2021/03/09 01:58:36;;;;;;;;;;;;;;;11.64;46.69;100604.00;4991765;28;20366;-69
2021/03/09 02:01:03;;;;;;;;;;;;;;;11.69;46.69;100608.72;4990921;28;19926;-70
2021/03/09 02:03:29;;;;;;;;;;;;;;;11.68;46.78;100615.44;4990048;28;19929;-68
2021/03/09 02:05:56;;;;;;;;;;;;;;;11.67;46.87;100602.59;4990746;28;20446;-70
2021/03/09 02:08:22;;;;;;;;;;;;;;;11.76;46.59;100604.50;4990735;28;19926;-67
2021/03/09 02:10:48;;;;;;;;;;;;;;;11.82;46.32;100610.91;4990544;28;19972;-71
2021/03/09 02:13:23;;;;;;;;;;;;;;;11.86;46.54;100603.63;4990798;28;19933;-70
2021/03/09 02:15:49;;;;;;;;;;;;;;;11.91;46.21;100608.38;4991334;28;19964;-70
2021/03/09 02:18:20;;;;;;;;;;;;;;;11.95;46.28;100593.53;4991812;28;19925;-70
2021/03/09 02:21:05;;;;;;;;;;;;;;;11.95;45.79;100599.13;4990869;28;19933;-69
2021/03/09 02:23:50;;;;;;;;;;;;;;;12.02;45.29;100588.44;4991085;28;19940;-71
2021/03/09 02:26:35;;;;;;;;;;;;;;;12.02;44.98;100574.44;4990377;28;20272;-72
2021/03/09 02:29:01;;;;;;;;;;;;;;;12.22;44.58;100581.03;4990240;28;20389;-70
2021/03/09 02:31:29;;;;;;;;;;;;;;;12.33;44.29;100582.63;4992117;28;19926;-76
2021/03/09 02:34:00;;;;;;;;;;;;;;;12.35;44.17;100591.59;4991152;28;19988;-78
2021/03/09 02:36:28;;;;;;;;;;;;;;;12.19;44.05;100595.63;4991623;28;19932;-73
2021/03/09 02:39:13;;;;;;;;;;;;;;;12.23;43.97;100596.69;4990320;28;19948;-71
2021/03/09 02:41:43;;;;;;;;;;;;;;;12.39;43.50;100586.22;4990201;28;19932;-68
2021/03/09 02:44:13;;;;;;;;;;;;;;;12.22;43.77;100593.06;4989414;28;19926;-67
2021/03/09 02:46:40;;;;;;;;;;;;;;;12.03;44.00;100590.13;4988201;28;19949;-67
2021/03/09 02:49:25;;;;;;;;;;;;;;;12.01;43.94;100581.19;4986754;28;19926;-68
2021/03/09 02:51:51;;;;;;;;;;;;;;;12.03;43.83;100587.34;4991092;28;20246;-68
2021/03/09 02:54:19;;;;;;;;;;;;;;;12.04;43.85;100580.59;4990624;28;19938;-68
2021/03/09 02:56:46;;;;;;;;;;;;;;;12.00;43.83;100568.31;4989002;28;19933;-66
2021/03/09 02:59:13;;;;;;;;;;;;;;;11.96;43.92;100575.59;4990828;28;19993;-66
2021/03/09 03:01:41;;;;;;;;;;;;;;;11.96;43.96;100572.78;4990305;28;20370;-66
2021/03/09 03:04:09;;;;;;;;;;;;;;;11.65;44.32;100565.66;4984813;28;20390;-65
2021/03/09 03:06:37;;;;;;;;;;;;;;;11.52;44.72;100569.91;4990373;28;19933;-63
2021/03/09 03:09:04;;;;;;;;;;;;;;;11.65;44.33;100579.66;4989457;28;20290;-64
2021/03/09 03:11:31;;;;;;;;;;;;;;;11.69;44.48;100575.16;4990579;28;20268;-65
2021/03/09 03:14:00;;;;;;;;;;;;;;;11.63;44.39;100569.59;4989529;28;19926;-64
2021/03/09 03:16:27;;;;;;;;;;;;;;;11.68;44.34;100559.50;4990120;28;19930;-63
2021/03/09 03:18:54;;;;;;;;;;;;;;;11.62;44.56;100581.94;4992066;28;19929;-66
2021/03/09 03:21:21;;;;;;;;;;;;;;;11.67;44.67;100577.44;4994332;28;19933;-66
2021/03/09 03:23:48;;;;;;;;;;;;;;;11.42;44.88;100590.41;4993768;28;19937;-65
2021/03/09 03:26:14;;;;;;;;;;;;;;;11.53;44.70;100597.63;4994589;28;19937;-66
2021/03/09 03:28:43;;;;;;;;;;;;;;;11.83;44.41;100610.63;4993310;28;19926;-65
2021/03/09 03:31:09;;;;;;;;;;;;;;;11.82;44.26;100605.31;4994219;28;20322;-64
2021/03/09 03:33:38;;;;;;;;;;;;;;;11.71;44.46;100604.53;4994259;28;19976;-64
2021/03/09 03:36:05;;;;;;;;;;;;;;;11.68;44.31;100605.09;4994390;28;20072;-63
2021/03/09 03:38:37;;;;;;;;;;;;;;;11.63;44.67;100608.75;4993096;28;19933;-64
2021/03/09 03:41:04;;;;;;;;;;;;;;;11.75;44.37;100605.63;4988777;28;19926;-65
2021/03/09 03:43:30;;;;;;;;;;;;;;;11.86;44.26;100609.22;4993805;28;20370;-77
2021/03/09 03:45:56;;;;;;;;;;;;;;;11.74;44.27;100608.72;4995021;28;19937;-71
2021/03/09 03:48:24;;;;;;;;;;;;;;;11.59;44.75;100599.28;4993715;28;20287;-69
2021/03/09 03:50:51;;;;;;;;;;;;;;;11.65;44.52;100605.66;4993727;28;19926;-71
2021/03/09 03:53:32;;;;;;;;;;;;;;;11.38;44.85;100601.31;5008443;28;19929;-68
2021/03/09 03:56:02;;;;;;;;;;;;;;;11.30;45.31;100592.66;4993595;28;20305;-68
2021/03/09 03:58:39;;;;;;;;;;;;;;;11.14;45.46;100595.53;4993935;28;19949;-68
2021/03/09 04:01:09;;;;;;;;;;;;;;;10.94;45.55;100592.78;4987825;28;20365;-66
2021/03/09 04:03:36;;;;;;;;;;;;;;;10.93;45.83;100590.25;4993493;28;19937;-65
2021/03/09 04:06:03;;;;;;;;;;;;;;;11.07;45.42;100594.94;4992969;28;19933;-65
2021/03/09 04:08:31;;;;;;;;;;;;;;;11.04;45.53;100589.97;4993671;28;19948;-67
2021/03/09 04:11:05;;;;;;;;;;;;;;;11.13;45.17;100588.22;4992692;28;20363;-64
2021/03/09 04:13:33;;;;;;;;;;;;;;;10.97;45.14;100594.13;4993293;28;19942;-64
2021/03/09 04:16:00;;;;;;;;;;;;;;;11.04;45.08;100589.09;4994062;28;19944;-65
2021/03/09 04:18:27;;;;;;;;;;;;;;;11.04;44.79;100591.88;4993288;28;20076;-64
2021/03/09 04:20:54;;;;;;;;;;;;;;;10.95;44.91;100593.59;4993085;28;19957;-64
2021/03/09 04:23:21;;;;;;;;;;;;;;;10.91;44.92;100596.13;4993702;28;19926;-66
2021/03/09 04:25:50;;;;;;;;;;;;;;;11.08;44.55;100595.81;4993832;28;19985;-64
2021/03/09 04:28:17;;;;;;;;;;;;;;;11.06;44.58;100607.25;4991625;28;19936;-66
2021/03/09 04:30:43;;;;;;;;;;;;;;;10.90;44.83;100600.00;4992468;28;19926;-64
2021/03/09 04:33:17;;;;;;;;;;;;;;;11.28;44.37;100597.69;4993185;28;20478;-66
2021/03/09 04:35:44;;;;;;;;;;;;;;;11.28;44.33;100594.91;4992998;28;19932;-64
2021/03/09 04:38:10;;;;;;;;;;;;;;;11.26;43.97;100613.94;4992114;28;19929;-64
2021/03/09 04:40:37;;;;;;;;;;;;;;;11.27;44.01;100615.59;4991797;28;19926;-62
2021/03/09 04:43:04;;;;;;;;;;;;;;;11.41;43.68;100610.25;4989944;28;19926;-62
2021/03/09 04:45:32;;;;;;;;;;;;;;;11.11;44.05;100623.16;4992553;28;19933;-64
2021/03/09 04:48:02;;;;;;;;;;;;;;;11.37;43.83;100638.78;4993055;28;20398;-66
2021/03/09 04:50:29;;;;;;;;;;;;;;;11.22;43.73;100646.38;4992833;28;20374;-66
2021/03/09 04:52:56;;;;;;;;;;;;;;;11.46;43.42;100641.00;4993193;28;19953;-65
2021/03/09 04:55:23;;;;;;;;;;;;;;;11.44;43.65;100638.47;4992837;28;19929;-65
2021/03/09 04:57:49;;;;;;;;;;;;;;;11.43;43.46;100642.41;4992876;28;19926;-66
2021/03/09 05:00:20;;;;;;;;;;;;;;;11.37;43.43;100649.13;4993031;28;19926;-62
2021/03/09 05:02:46;;;;;;;;;;;;;;;11.24;43.77;100646.91;4992514;28;19926;-65
2021/03/09 05:05:13;;;;;;;;;;;;;;;11.28;43.55;100645.22;4991648;28;19984;-67
2021/03/09 05:07:39;;;;;;;;;;;;;;;11.35;43.52;100651.34;4992819;28;20027;-66
2021/03/09 05:10:06;;;;;;;;;;;;;;;11.29;43.56;100658.94;4991274;28;19932;-68
2021/03/09 05:12:33;;;;;;;;;;;;;;;11.18;43.82;100650.81;4992564;28;19930;-67
2021/03/09 05:14:59;;;;;;;;;;;;;;;10.99;44.21;100654.22;4992003;28;19926;-67
2021/03/09 05:17:25;;;;;;;;;;;;;;;10.82;44.63;100660.09;4993069;28;19972;-67
2021/03/09 05:19:51;;;;;;;;;;;;;;;10.70;44.89;100655.91;4991080;28;19926;-66
2021/03/09 05:22:20;;;;;;;;;;;;;;;10.62;44.84;100658.13;4991054;28;19933;-67
2021/03/09 05:24:46;;;;;;;;;;;;;;;10.71;44.86;100654.81;4991955;28;19933;-66
2021/03/09 05:27:12;;;;;;;;;;;;;;;10.90;44.47;100650.31;4990868;28;19930;-66
2021/03/09 05:29:38;;;;;;;;;;;;;;;10.80;44.48;100662.34;4992554;28;19933;-67
2021/03/09 05:32:05;;;;;;;;;;;;;;;10.90;44.41;100661.47;4992179;28;20051;-67
2021/03/09 05:34:32;;;;;;;;;;;;;;;10.92;44.29;100662.06;4991830;28;19933;-66
2021/03/09 05:36:58;;;;;;;;;;;;;;;10.92;44.22;100673.22;4986454;28;20021;-63
2021/03/09 05:39:24;;;;;;;;;;;;;;;10.87;44.29;100674.06;4992737;28;19936;-65
2021/03/09 05:41:50;;;;;;;;;;;;;;;11.06;44.00;100677.13;4991244;28;19932;-66
2021/03/09 05:44:16;;;;;;;;;;;;;;;10.97;44.08;100687.19;4992058;28;20378;-65
2021/03/09 05:46:42;;;;;;;;;;;;;;;10.99;43.95;100687.75;4991253;28;19926;-63
2021/03/09 05:49:10;;;;;;;;;;;;;;;11.07;44.00;100698.34;4992276;28;19936;-63
2021/03/09 05:51:48;;;;;;;;;;;;;;;11.26;43.63;100695.00;4992207;28;20084;-64
2021/03/09 05:54:16;;;;;;;;;;;;;;;11.24;43.48;100702.81;4990263;28;20327;-65
2021/03/09 05:56:42;;;;;;;;;;;;;;;10.98;44.06;100707.59;4990813;28;19933;-63
2021/03/09 05:59:08;;;;;;;;;;;;;;;10.94;44.14;100712.91;4991104;28;19973;-64
2021/03/09 06:01:35;;;;;;;;;;;;;;;11.11;43.61;100710.69;4991119;28;19926;-64
2021/03/09 06:04:02;;;;;;;;;;;;;;;10.97;43.90;100712.34;4991156;28;19941;-63
2021/03/09 06:06:31;;;;;;;;;;;;;;;11.18;43.44;100707.59;4991731;28;20410;-67
2021/03/09 06:08:57;;;;;;;;;;;;;;;11.14;43.54;100724.09;4990182;28;19932;-68
2021/03/09 06:11:23;;;;;;;;;;;;;;;11.06;43.69;100738.59;4991294;28;19936;-66
2021/03/09 06:13:49;;;;;;;;;;;;;;;11.05;43.75;100731.34;4992181;28;19930;-72
2021/03/09 06:16:16;;;;;;;;;;;;;;;10.93;44.00;100732.75;4988232;28;20379;-67
2021/03/09 06:18:57;;;;;;;;;;;;;;;10.98;43.99;100733.59;4989923;28;19933;-72
2021/03/09 06:21:24;;;;;;;;;;;;;;;11.05;43.69;100731.34;4986795;28;19932;-75
2021/03/09 06:23:52;;;;;;;;;;;;;;;11.19;43.37;100731.63;4989725;28;19930;-74
2021/03/09 06:26:50;;;;;;;;;;;;;;;10.97;43.80;100739.44;4988734;28;19930;-72
2021/03/09 06:29:17;;;;;;;;;;;;;;;10.99;43.87;100743.63;4955925;28;19936;-77
2021/03/09 06:31:49;;;;;;;;;;;;;;;10.89;43.97;100749.22;4986533;28;20481;-79
2021/03/09 06:34:19;;;;;;;;;;;;;;;10.94;43.92;100752.03;4988407;28;19925;-82
2021/03/09 06:37:03;;;;;;;;;;;;;;;10.90;43.83;100751.72;4988226;28;19948;-64
2021/03/09 06:39:41;;;;;;;;;;;;;;;10.89;44.06;100752.00;4985651;28;19925;-71
2021/03/09 06:42:09;;;;;;;;;;;;;;;10.90;43.92;100756.47;4988713;28;20328;-64
2021/03/09 06:44:35;;;;;;;;;;;;;;;10.96;43.91;100757.34;4989109;28;20425;-66
2021/03/09 06:47:01;;;;;;;;;;;;;;;10.90;44.00;100762.91;4982018;28;19937;-60
2021/03/09 06:49:28;;;;;;;;;;;;;;;10.92;43.92;100762.63;4981359;28;19933;-64
2021/03/09 06:51:54;;;;;;;;;;;;;;;10.77;44.25;100760.69;4987050;28;19930;-64
2021/03/09 06:54:20;;;;;;;;;;;;;;;10.95;43.82;100753.69;4986644;28;20433;-64
2021/03/09 06:56:46;;;;;;;;;;;;;;;10.74;44.57;100752.00;4985335;28;20012;-65
2021/03/09 06:59:30;;;;;;;;;;;;;;;10.70;44.51;100756.44;4986434;28;20378;-66
2021/03/09 07:02:12;;;;;;;;;;;;;;;10.85;44.16;100760.13;4988198;28;19933;-68
2021/03/09 07:04:40;;;;;;;;;;;;;;;10.85;43.93;100757.31;4975220;28;20285;-64
2021/03/09 07:07:08;;;;;;;;;;;;;;;10.71;44.42;100766.53;4981991;28;20414;-62
2021/03/09 07:09:51;;;;;;;;;;;;;;;10.61;44.42;100770.13;4986270;28;19926;-63
2021/03/09 07:12:18;;;;;;;;;;;;;;;10.82;43.98;100774.63;4980275;28;19926;-64
2021/03/09 07:14:45;;;;;;;;;;;;;;;10.78;44.21;100781.91;4985399;28;19929;-63
2021/03/09 07:17:12;;;;;;;;;;;;;;;10.85;43.89;100779.66;4982587;28;20293;-62
2021/03/09 07:19:43;;;;;;;;;;;;;;;10.88;43.98;100778.28;5000251;28;19925;-64
2021/03/09 07:22:11;;;;;;;;;;;;;;;11.11;43.44;100783.34;4984995;28;19959;-62
2021/03/09 07:24:53;;;;;;;;;;;;;;;11.32;43.11;100789.78;4986845;28;19937;-62
2021/03/09 07:27:31;;;;;;;;;;;;;;;11.63;42.98;100793.38;4980031;28;19930;-63
2021/03/09 07:29:58;;;;;;;;;;;;;;;11.98;42.54;100794.47;4986816;28;19936;-63
2021/03/09 07:32:26;;;;;;;;;;;;;;;12.12;42.61;100791.91;4986563;28;19937;-62
2021/03/09 07:34:53;;;;;;;;;;;;;;;12.38;42.45;100786.22;4987127;28;19936;-63
2021/03/09 07:37:19;;;;;;;;;;;;;;;12.56;42.16;100789.19;4982901;28;19929;-63
2021/03/09 07:39:46;;;;;;;;;;;;;;;12.62;42.22;100783.56;4987599;28;19933;-63
2021/03/09 07:42:13;;;;;;;;;;;;;;;12.64;42.41;100784.94;4982875;28;20069;-65
2021/03/09 07:44:40;;;;;;;;;;;;;;;12.73;42.68;100790.78;4985379;28;20382;-63
2021/03/09 07:47:07;;;;;;;;;;;;;;;12.84;42.74;100783.13;4981348;28;19929;-64
2021/03/09 07:49:36;;;;;;;;;;;;;;;12.95;42.99;100793.16;4984778;28;19972;-63
2021/03/09 07:52:08;;;;;;;;;;;;;;;13.07;42.87;100785.22;4983433;28;19934;-62
2021/03/09 07:54:34;;;;;;;;;;;;;;;13.22;43.22;100789.88;4982969;28;19936;-63
2021/03/09 07:57:20;;;;;;;;;;;;;;;13.43;43.15;100787.75;4985390;28;19922;-63
2021/03/09 07:59:58;;;;;;;;;;;;;;;13.54;43.21;100791.31;4978970;28;20397;-62
2021/03/09 08:02:39;;;;;;;;;;;;;;;13.73;43.43;100787.47;4983884;28;19929;-64
2021/03/09 08:05:16;;;;;;;;;;;;;;;14.08;43.33;100793.84;4984811;28;20393;-61
2021/03/09 08:07:53;;;;;;;;;;;;;;;14.44;42.54;100791.44;4987578;28;19929;-63
2021/03/09 08:10:39;;;;;;;;;;;;;;;14.90;42.53;100802.06;4989295;28;19929;-64
2021/03/09 08:13:08;;;;;;;;;;;;;;;15.38;41.90;100799.09;4987069;28;19926;-63
2021/03/09 08:15:34;;;;;;;;;;;;;;;15.71;41.41;100801.91;4988494;28;19929;-63
2021/03/09 08:18:22;;;;;;;;;;;;;;;15.95;41.07;100807.41;4989052;28;19930;-63
2021/03/09 08:20:48;;;;;;;;;;;;;;;16.17;40.67;100820.78;4988571;28;20016;-62
2021/03/09 08:23:36;;;;;;;;;;;;;;;16.42;39.97;100818.59;4990362;28;19973;-62
2021/03/09 08:26:07;;;;;;;;;;;;;;;16.82;39.69;100822.56;4984646;28;19941;-63
2021/03/09 08:28:51;;;;;;;;;;;;;;;17.15;39.58;100826.03;4991969;28;19934;-63
2021/03/09 08:31:17;;;;;;;;;;;;;;;17.36;39.26;100826.38;4989925;28;19925;-62
2021/03/09 08:34:05;;;;;;;;;;;;;;;17.62;39.38;100834.22;4986353;28;19925;-68
2021/03/09 08:36:33;;;;;;;;;;;;;;;17.85;38.75;100843.56;4991852;28;19926;-63
2021/03/09 08:39:05;;;;;;;;;;;;;;;18.13;38.47;100847.03;4990923;28;20394;-64
2021/03/09 08:41:35;;;;;;;;;;;;;;;18.38;37.88;100851.13;4990360;28;19933;-63
2021/03/09 08:44:13;;;;;;;;;;;;;;;18.19;36.98;100857.88;4990901;28;19945;-63
2021/03/09 08:47:00;;;;;;;;;;;;;;;18.35;35.78;100857.44;4990975;28;19940;-62
2021/03/09 08:49:35;;;;;;;;;;;;;;;18.55;36.03;100858.84;4989636;28;19930;-62
2021/03/09 08:52:06;;;;;;;;;;;;;;;18.72;35.09;100866.59;4990698;28;20024;-64
2021/03/09 08:54:37;;;;;;;;;;;;;;;18.72;34.14;100872.25;4990645;28;19944;-64
2021/03/09 08:57:11;;;;;;;;;;;;;;;18.75;33.72;100865.94;4989230;28;20318;-64
2021/03/09 08:59:39;;;;;;;;;;;;;;;18.93;34.05;100864.81;4984376;28;19934;-66
2021/03/09 09:02:09;;;;;;;;;;;;;;;19.27;34.49;100866.03;4987501;28;20325;-63
2021/03/09 09:04:36;;;;;;;;;;;;;;;19.53;34.56;100866.06;4989393;28;19961;-63
2021/03/09 09:07:23;;;;;;;;;;;;;;;19.46;33.23;100863.72;4988611;28;20016;-62
2021/03/09 09:09:54;;;;;;;;;;;;;;;19.45;33.69;100867.72;4989603;28;20056;-61
2021/03/09 09:12:21;;;;;;;;;;;;;;;19.85;33.62;100874.06;4990009;28;19976;-62
2021/03/09 09:15:06;;;;;;;;;;;;;;;20.19;33.31;100874.34;4986781;28;19926;-62
2021/03/09 09:17:33;;;;;;;;;;;;;;;20.19;32.86;100888.50;4986315;28;19941;-62
2021/03/09 09:20:00;;;;;;;;;;;;;;;20.15;32.68;100884.69;4986072;28;19937;-65
2021/03/09 09:22:27;;;;;;;;;;;;;;;20.20;33.15;100876.81;4988516;28;19926;-64
2021/03/09 09:24:55;;;;;;;;;;;;;;;20.36;32.83;100879.94;4987023;28;19926;-64
2021/03/09 09:27:21;;;;;;;;;;;;;;;20.52;32.59;100881.09;4989856;28;20396;-64
2021/03/09 09:29:54;;;;;;;;;;;;;;;20.42;32.38;100889.13;4988748;28;19961;-62
2021/03/09 09:32:21;;;;;;;;;;;;;;;20.62;32.62;100894.06;4986619;28;19930;-63
2021/03/09 09:34:56;;;;;;;;;;;;;;;20.94;32.37;100884.06;4986017;28;19930;-63
2021/03/09 09:37:22;;;;;;;;;;;;;;;21.00;31.72;100877.00;4988362;28;19929;-63
2021/03/09 09:39:48;;;;;;;;;;;;;;;21.14;32.22;100878.75;4988128;28;20436;-63
2021/03/09 09:42:15;;;;;;;;;;;;;;;21.25;31.99;100888.53;4990125;28;19929;-61
2021/03/09 09:44:41;;;;;;;;;;;;;;;21.52;31.70;100888.03;4988922;28;19930;-63
2021/03/09 09:47:10;;;;;;;;;;;;;;;21.72;31.07;100889.19;4985183;28;20020;-63
2021/03/09 09:49:37;;;;;;;;;;;;;;;21.90;31.19;100892.72;4984918;28;20027;-63
2021/03/09 09:52:11;;;;;;;;;;;;;;;21.70;30.06;100900.06;4987135;28;20322;-63
2021/03/09 09:54:37;;;;;;;;;;;;;;;20.93;28.54;100909.97;4991087;28;20008;-64
2021/03/09 09:57:07;;;;;;;;;;;;;;;20.98;30.07;100902.06;4989601;28;19926;-63
2021/03/09 09:59:33;;;;;;;;;;;;;;;21.20;29.20;100898.09;4985917;28;20039;-62
2021/03/09 10:02:12;;;;;;;;;;;;;;;20.74;28.28;100893.34;4984961;28;19940;-63
2021/03/09 10:04:38;;;;;;;;;;;;;;;20.11;28.21;100905.22;4979337;28;19930;-63
2021/03/09 10:07:12;;;;;;;;;;;;;;;20.41;29.33;100915.78;4985566;28;19968;-63
2021/03/09 10:09:39;;;;;;;;;;;;;;;21.23;29.33;100905.94;4986728;28;20299;-61
2021/03/09 10:12:06;;;;;;;;;;;;;;;21.91;29.01;100894.34;4989886;28;20016;-62
2021/03/09 10:14:32;;;;;;;;;;;;;;;21.93;28.62;100903.38;4989321;28;19930;-63
2021/03/09 10:16:59;;;;;;;;;;;;;;;21.91;29.05;100910.59;4983737;28;19933;-63
2021/03/09 10:19:36;;;;;;;;;;;;;;;22.09;29.20;100899.91;4985984;28;19925;-63
2021/03/09 10:22:03;;;;;;;;;;;;;;;22.38;29.41;100904.63;4987080;28;19940;-62
2021/03/09 10:24:37;;;;;;;;;;;;;;;22.49;29.30;100891.59;4986854;28;19926;-64
2021/03/09 10:27:12;;;;;;;;;;;;;;;22.60;29.20;100904.19;4986355;28;19929;-64
2021/03/09 10:29:38;;;;;;;;;;;;;;;22.65;29.28;100895.41;4985653;28;19944;-66
2021/03/09 10:32:12;;;;;;;;;;;;;;;22.55;29.23;100895.06;4987447;28;19937;-65
2021/03/09 10:34:52;;;;;;;;;;;;;;;22.66;29.33;100896.25;4981814;28;19934;-63
2021/03/09 10:37:31;;;;;;;;;;;;;;;22.99;28.75;100883.97;4978604;28;19985;-63
2021/03/09 10:39:59;;;;;;;;;;;;;;;23.12;29.16;100885.63;4986475;28;20321;-63
2021/03/09 10:42:43;;;;;;;;;;;;;;;22.90;28.64;100884.84;4986282;28;19934;-65
2021/03/09 10:45:15;;;;;;;;;;;;;;;22.66;28.80;100890.56;4982402;28;19925;-64
2021/03/09 10:47:50;;;;;;;;;;;;;;;22.12;26.96;100888.66;4981135;28;20398;-66
2021/03/09 10:50:17;;;;;;;;;;;;;;;21.74;27.36;100878.31;4984111;28;19937;-65
2021/03/09 10:52:43;;;;;;;;;;;;;;;21.82;26.77;100873.72;4979226;28;20365;-67
2021/03/09 10:55:10;;;;;;;;;;;;;;;22.16;27.52;100877.44;4987897;28;19926;-65
2021/03/09 10:57:36;;;;;;;;;;;;;;;22.96;27.35;100876.94;4986616;28;20015;-66
2021/03/09 11:00:05;;;;;;;;;;;;;;;23.83;27.50;100864.19;4985665;28;19930;-66
2021/03/09 11:02:31;;;;;;;;;;;;;;;24.55;27.37;100873.56;4984836;28;20009;-66
2021/03/09 11:04:58;;;;;;;;;;;;;;;25.16;27.29;100880.81;4980058;28;20400;-66
2021/03/09 11:07:24;;;;;;;;;;;;;;;25.63;27.60;100879.81;4983246;28;20048;-66
2021/03/09 11:09:50;;;;;;;;;;;;;;;25.45;26.57;100884.31;4985592;28;19934;-66
2021/03/09 11:12:16;;;;;;;;;;;;;;;25.75;27.34;100882.53;4984012;28;19972;-67
2021/03/09 11:14:42;;;;;;;;;;;;;;;25.92;27.80;100880.47;4984240;28;19949;-65
2021/03/09 11:17:09;;;;;;;;;;;;;;;26.38;27.49;100874.81;4984975;28;19976;-67
2021/03/09 11:19:35;;;;;;;;;;;;;;;26.91;27.61;100875.78;4984290;28;19946;-68
2021/03/09 11:22:02;;;;;;;;;;;;;;;27.33;27.28;100871.13;4986652;28;20525;-66
2021/03/09 11:24:28;;;;;;;;;;;;;;;27.81;27.16;100874.25;4986570;28;19930;-67
2021/03/09 11:27:01;;;;;;;;;;;;;;;29.04;26.53;100873.09;4985061;28;19926;-66
2021/03/09 11:29:31;;;;;;;;;;;;;;;30.95;24.91;100875.50;4987581;28;19977;-67
2021/03/09 11:31:57;;;;;;;;;;;;;;;31.78;24.87;100871.19;4985274;28;20017;-66
2021/03/09 11:34:27;;;;;;;;;;;;;;;31.66;25.35;100880.34;4985062;28;20421;-66
2021/03/09 11:36:54;;;;;;;;;;;;;;;31.14;26.02;100877.09;4985374;28;20148;-65
2021/03/09 11:39:20;;;;;;;;;;;;;;;30.14;25.44;100876.97;4988878;28;19957;-66
2021/03/09 11:41:48;;;;;;;;;;;;;;;28.95;23.37;100874.63;4991276;28;19926;-66
2021/03/09 11:44:15;;;;;;;;;;;;;;;27.94;24.07;100866.22;4992365;28;19951;-66
2021/03/09 11:46:41;;;;;;;;;;;;;;;27.70;24.79;100873.28;4989522;28;19936;-67
2021/03/09 11:49:08;;;;;;;;;;;;;;;27.82;24.50;100867.28;4992471;28;20330;-62
2021/03/09 11:51:34;;;;;;;;;;;;;;;27.82;24.32;100870.16;4991748;28;19930;-64
2021/03/09 11:54:00;;;;;;;;;;;;;;;27.57;24.72;100867.78;4988276;28;19965;-65
2021/03/09 11:56:27;;;;;;;;;;;;;;;27.66;24.97;100864.63;4985794;28;20016;-64
2021/03/09 11:58:53;;;;;;;;;;;;;;;28.08;24.79;100867.22;4990161;28;20021;-64
2021/03/09 12:01:20;;;;;;;;;;;;;;;28.35;23.97;100858.47;4988127;28;19969;-66
2021/03/09 12:03:47;;;;;;;;;;;;;;;28.77;23.44;100860.13;4987405;28;20259;-64
2021/03/09 12:06:14;;;;;;;;;;;;;;;28.97;23.18;100850.00;4988621;28;20284;-65
2021/03/09 12:08:40;;;;;;;;;;;;;;;29.78;22.52;100850.94;4988938;28;19926;-65
2021/03/09 12:11:09;;;;;;;;;;;;;;;30.29;22.23;100849.91;4990759;28;19933;-66
2021/03/09 12:13:35;;;;;;;;;;;;;;;31.09;21.82;100845.81;4985733;28;19937;-66
2021/03/09 12:16:02;;;;;;;;;;;;;;;31.80;21.16;100845.63;4984570;28;19930;-64
2021/03/09 12:18:28;;;;;;;;;;;;;;;32.27;20.69;100840.41;4989589;28;20036;-65
2021/03/09 12:20:54;;;;;;;;;;;;;;;32.51;20.59;100834.91;4988759;28;19930;-66
2021/03/09 12:23:23;;;;;;;;;;;;;;;32.88;20.59;100833.38;4988916;28;19940;-65
2021/03/09 12:26:03;;;;;;;;;;;;;;;33.23;19.79;100824.38;4986083;28;19929;-64
2021/03/09 12:28:29;;;;;;;;;;;;;;;33.21;20.21;100823.16;4987998;28;21633;-65
2021/03/09 12:30:55;;;;;;;;;;;;;;;33.31;19.90;100816.41;4985401;28;20012;-64
2021/03/09 12:33:21;;;;;;;;;;;;;;;33.59;19.24;100811.56;4981933;28;19934;-65
2021/03/09 12:35:48;;;;;;;;;;;;;;;33.81;19.03;100809.19;4983851;28;19952;-67
2021/03/09 12:38:16;;;;;;;;;;;;;;;34.08;19.07;100815.88;4986411;28;20063;-65
2021/03/09 12:40:42;;;;;;;;;;;;;;;34.42;18.81;100815.75;4988778;28;19929;-65
2021/03/09 12:43:15;;;;;;;;;;;;;;;34.48;18.74;100801.59;4991017;28;19929;-65
2021/03/09 12:45:41;;;;;;;;;;;;;;;34.32;18.77;100795.63;4989855;28;19926;-66